Time;durP1;ratioP1;P1;durP2;ratioP2;P2;SDS_P1;SDS_P2;PMS_P1;PMS_P2;Temp;Humidity;BMP_temperature;BMP_pressure;BME280_temperature;BME280_humidity;BME280_pressure;Samples;Min_cycle;Max_cycle;Signal;HPM_P1;HPM_P2
2022/08/30 00:02:17;;;;;;;2.05;1.60;;;15.40;1.00;;;;;;5026671;28;20212;-63
2022/08/30 00:04:44;;;;;;;2.63;1.75;;;15.40;1.00;;;;;;5018466;28;20216;-62
2022/08/30 00:07:10;;;;;;;2.47;1.50;;;15.60;1.00;;;;;;5041226;28;20197;-63
2022/08/30 00:09:37;;;;;;;3.63;1.70;;;15.40;1.00;;;;;;5034284;28;20227;-62
2022/08/30 00:12:06;;;;;;;3.33;1.70;;;15.40;1.00;;;;;;5043688;28;20217;-62
2022/08/30 00:14:33;;;;;;;2.47;1.73;;;15.30;1.00;;;;;;5007531;28;20220;-63
2022/08/30 00:16:59;;;;;;;1.50;1.40;;;15.20;1.00;;;;;;5039837;28;20752;-62
2022/08/30 00:19:26;;;;;;;2.00;1.63;;;15.30;1.00;;;;;;5027919;28;20209;-62
2022/08/30 00:21:53;;;;;;;2.33;1.55;;;15.20;1.00;;;;;;5030940;28;20200;-63
2022/08/30 00:24:20;;;;;;;2.28;1.70;;;15.20;1.00;;;;;;5041950;28;20203;-62
2022/08/30 00:26:47;;;;;;;2.88;1.73;;;15.20;1.00;;;;;;5041586;28;20201;-63
2022/08/30 00:29:15;;;;;;;3.10;1.60;;;15.80;1.00;;;;;;5011763;28;21186;-63
2022/08/30 00:31:41;;;;;;;1.80;1.70;;;15.20;1.00;;;;;;5043134;28;20190;-62
2022/08/30 00:34:08;;;;;;;3.17;1.65;;;15.60;1.00;;;;;;5027793;28;20292;-62
2022/08/30 00:36:36;;;;;;;4.32;1.40;;;15.20;1.00;;;;;;5034070;28;20220;-62
2022/08/30 00:39:04;;;;;;;2.92;1.50;;;15.20;1.00;;;;;;5039011;28;20197;-62
2022/08/30 00:41:31;;;;;;;1.80;1.65;;;15.20;1.00;;;;;;5031180;28;20222;-62
2022/08/30 00:43:58;;;;;;;1.80;1.60;;;15.10;1.00;;;;;;5043388;28;20205;-62
2022/08/30 00:46:26;;;;;;;2.38;1.80;;;15.00;1.00;;;;;;5016713;28;21233;-63
2022/08/30 00:48:54;;;;;;;5.03;1.67;;;15.10;1.00;;;;;;5044590;28;20229;-62
2022/08/30 00:51:22;;;;;;;4.88;1.75;;;15.10;1.00;;;;;;5029108;28;20216;-62
2022/08/30 00:53:54;;;;;;;4.30;1.90;;;15.10;1.00;;;;;;5023411;28;20204;-62
2022/08/30 00:56:22;;;;;;;1.98;1.55;;;15.00;1.00;;;;;;5041810;28;20201;-61
2022/08/30 00:58:51;;;;;;;3.25;1.83;;;15.00;1.00;;;;;;5044223;28;20200;-62
2022/08/30 01:01:19;;;;;;;3.45;1.55;;;15.00;1.00;;;;;;5009839;28;20835;-63
2022/08/30 01:03:48;;;;;;;3.75;1.80;;;15.00;1.00;;;;;;5037649;28;20292;-63
2022/08/30 01:06:16;;;;;;;1.65;1.55;;;15.00;1.00;;;;;;5027768;28;20243;-62
2022/08/30 01:08:44;;;;;;;2.65;1.70;;;15.00;1.00;;;;;;5018593;28;20201;-62
2022/08/30 01:11:13;;;;;;;2.58;1.50;;;14.90;1.00;;;;;;5042273;28;20196;-62
2022/08/30 01:13:42;;;;;;;1.90;1.50;;;14.80;1.00;;;;;;5038851;28;20208;-62
2022/08/30 01:16:09;;;;;;;2.83;1.67;;;14.70;1.00;;;;;;5041632;28;20193;-62
2022/08/30 01:18:37;;;;;;;2.85;1.92;;;14.70;1.00;;;;;;5012793;28;20205;-62
2022/08/30 01:21:13;;;;;;;3.60;2.00;;;14.30;1.00;;;;;;5016883;28;20621;-62
2022/08/30 01:23:43;;;;;;;2.22;1.90;;;14.50;1.00;;;;;;5024784;28;20219;-62
2022/08/30 01:26:11;;;;;;;2.13;1.60;;;13.50;1.00;;;;;;5030449;28;20209;-62
2022/08/30 01:28:40;;;;;;;2.85;1.73;;;14.50;1.00;;;;;;5039178;28;20258;-63
2022/08/30 01:31:07;;;;;;;2.97;1.80;;;14.20;1.00;;;;;;5037021;28;20196;-63
2022/08/30 01:33:37;;;;;;;3.78;2.00;;;14.10;1.00;;;;;;5012055;28;20285;-62
2022/08/30 01:36:06;;;;;;;4.82;2.00;;;14.10;1.00;;;;;;5009878;28;20218;-63
2022/08/30 01:38:38;;;;;;;2.33;1.90;;;13.90;1.00;;;;;;5027826;28;20623;-63
2022/08/30 01:41:11;;;;;;;2.60;2.40;;;13.80;1.00;;;;;;5023561;28;20663;-62
2022/08/30 01:43:38;;;;;;;4.75;2.40;;;13.70;1.00;;;;;;5038256;28;20204;-62
2022/08/30 01:46:05;;;;;;;3.65;2.67;;;13.70;6.50;;;;;;5035265;28;20201;-63
2022/08/30 01:48:33;;;;;;;4.00;2.30;;;13.80;25.30;;;;;;5003196;28;20212;-62
2022/08/30 01:51:00;;;;;;;2.45;2.25;;;13.90;21.70;;;;;;5019566;28;20263;-62
2022/08/30 01:53:26;;;;;;;3.90;2.50;;;13.80;24.40;;;;;;5025402;28;20232;-63
2022/08/30 01:55:53;;;;;;;4.38;2.40;;;14.50;22.90;;;;;;5010862;28;20209;-60
2022/08/30 01:58:22;;;;;;;3.58;2.47;;;13.90;26.50;;;;;;5039608;28;20205;-61
2022/08/30 02:00:48;;;;;;;2.72;2.20;;;13.90;26.90;;;;;;5019784;28;20551;-60
2022/08/30 02:03:15;;;;;;;2.60;2.40;;;14.00;24.80;;;;;;5037014;28;20211;-61
2022/08/30 02:05:42;;;;;;;3.42;2.45;;;16.10;32.50;;;;;;5002412;28;20613;-60
2022/08/30 02:08:09;;;;;;;3.03;2.20;;;14.00;27.60;;;;;;5033917;28;20204;-60
2022/08/30 02:10:36;;;;;;;4.07;2.38;;;14.10;28.70;;;;;;5014156;28;20593;-60
2022/08/30 02:13:03;;;;;;;3.42;2.85;;;14.10;32.30;;;;;;5032675;28;20200;-61
2022/08/30 02:15:31;;;;;;;3.75;2.50;;;14.10;30.90;;;;;;5016000;28;20216;-60
2022/08/30 02:17:58;;;;;;;2.58;2.17;;;14.10;36.60;;;;;;5036578;28;20193;-61
2022/08/30 02:20:25;;;;;;;3.28;2.70;;;14.10;33.70;;;;;;5012488;28;20200;-61
2022/08/30 02:22:51;;;;;;;3.20;2.10;;;14.10;31.30;;;;;;5020681;28;20200;-61
2022/08/30 02:25:18;;;;;;;2.67;2.33;;;14.00;18.10;;;;;;5018120;28;20249;-60
2022/08/30 02:27:45;;;;;;;3.10;2.42;;;14.00;25.70;;;;;;5037435;28;20201;-61
2022/08/30 02:30:13;;;;;;;4.70;2.30;;;14.20;31.40;;;;;;5018214;28;20235;-60
2022/08/30 02:32:41;;;;;;;3.15;2.42;;;14.00;29.00;;;;;;5036254;28;20204;-61
2022/08/30 02:35:08;;;;;;;5.85;2.10;;;13.90;35.30;;;;;;5012268;28;20228;-60
2022/08/30 02:37:35;;;;;;;3.22;2.40;;;13.90;28.50;;;;;;5033465;28;20217;-61
2022/08/30 02:40:02;;;;;;;2.65;2.42;;;14.00;34.40;;;;;;5022199;28;20205;-61
2022/08/30 02:42:29;;;;;;;2.67;2.17;;;14.00;46.80;;;;;;5042483;28;20200;-60
2022/08/30 02:44:56;;;;;;;3.35;2.50;;;14.00;43.70;;;;;;5017896;28;20208;-60
2022/08/30 02:47:23;;;;;;;3.80;2.55;;;14.10;46.70;;;;;;5034142;28;20193;-60
2022/08/30 02:49:51;;;;;;;4.18;3.13;;;14.10;44.50;;;;;;5017839;28;20216;-60
2022/08/30 02:52:18;;;;;;;5.57;2.90;;;14.80;41.50;;;;;;5023184;28;20201;-60
2022/08/30 02:54:45;;;;;;;2.35;2.15;;;14.00;39.30;;;;;;5024785;28;20291;-60
2022/08/30 02:57:12;;;;;;;3.63;2.60;;;14.00;38.90;;;;;;5031206;28;20542;-60
2022/08/30 02:59:42;;;;;;;4.38;3.00;;;14.00;37.00;;;;;;5036193;28;20288;-60
2022/08/30 03:02:10;;;;;;;2.80;2.40;;;13.90;35.50;;;;;;5021739;28;20214;-61
2022/08/30 03:04:38;;;;;;;4.40;2.22;;;13.70;41.00;;;;;;5013463;28;20741;-60
2022/08/30 03:07:07;;;;;;;3.22;2.50;;;13.90;39.10;;;;;;5024877;28;20211;-61
2022/08/30 03:09:34;;;;;;;2.92;2.50;;;13.90;41.80;;;;;;5020286;28;20224;-60
2022/08/30 03:12:01;;;;;;;5.25;2.50;;;13.80;43.40;;;;;;5026628;28;20200;-60
2022/08/30 03:14:28;;;;;;;3.75;2.65;;;13.90;45.20;;;;;;5033751;28;20662;-60
2022/08/30 03:16:55;;;;;;;4.32;3.45;;;13.80;44.20;;;;;;5012883;28;20686;-60
2022/08/30 03:19:22;;;;;;;5.90;3.17;;;13.90;42.40;;;;;;5037920;28;20207;-60
2022/08/30 03:21:49;;;;;;;5.07;3.10;;;13.80;37.80;;;;;;5002047;28;20213;-60
2022/08/30 03:24:18;;;;;;;6.40;2.83;;;13.80;38.90;;;;;;5037432;28;20563;-61
2022/08/30 03:26:44;;;;;;;6.45;2.70;;;13.90;26.80;;;;;;5010169;28;20224;-60
2022/08/30 03:29:11;;;;;;;5.30;2.70;;;13.70;34.70;;;;;;5028047;28;20573;-62
2022/08/30 03:31:38;;;;;;;2.90;2.60;;;13.80;30.00;;;;;;5031418;28;20228;-62
2022/08/30 03:34:05;;;;;;;8.15;3.20;;;13.80;31.60;;;;;;5023579;28;20200;-62
2022/08/30 03:36:32;;;;;;;4.25;2.58;;;13.80;36.80;;;;;;4998235;28;20219;-62
2022/08/30 03:38:59;;;;;;;3.78;2.80;;;14.00;41.10;;;;;;5027491;28;20211;-62
2022/08/30 03:41:27;;;;;;;3.42;2.58;;;13.70;36.10;;;;;;5022533;28;20205;-63
2022/08/30 03:43:54;;;;;;;4.35;2.53;;;13.90;41.80;;;;;;5035344;28;20216;-62
2022/08/30 03:46:21;;;;;;;3.60;2.55;;;12.70;41.20;;;;;;5026446;28;20576;-62
2022/08/30 03:48:48;;;;;;;3.03;2.70;;;13.80;41.00;;;;;;5012018;28;20224;-62
2022/08/30 03:51:14;;;;;;;4.47;2.83;;;13.70;38.40;;;;;;5008671;28;20851;-62
2022/08/30 03:53:41;;;;;;;4.05;2.40;;;13.60;34.60;;;;;;5023356;28;20205;-62
2022/08/30 03:56:08;;;;;;;4.18;2.78;;;16.50;47.80;;;;;;5016217;28;20236;-63
2022/08/30 03:58:36;;;;;;;4.97;2.67;;;13.90;43.80;;;;;;5030293;28;20252;-62
2022/08/30 04:01:03;;;;;;;5.63;2.92;;;13.60;42.80;;;;;;5031061;28;20319;-62
2022/08/30 04:03:30;;;;;;;3.88;2.45;;;13.60;44.40;;;;;;5013216;28;20581;-62
2022/08/30 04:05:57;;;;;;;3.13;2.33;;;13.70;44.60;;;;;;5034222;28;20221;-62
2022/08/30 04:08:24;;;;;;;3.42;2.88;;;13.70;40.60;;;;;;5001685;28;20209;-63
2022/08/30 04:10:52;;;;;;;10.20;2.78;;;13.60;41.00;;;;;;5019225;28;20233;-63
2022/08/30 04:13:19;;;;;;;5.05;3.08;;;13.70;44.20;;;;;;5023828;28;20208;-63
2022/08/30 04:15:47;;;;;;;4.80;2.95;;;13.60;50.00;;;;;;5033799;28;20217;-63
2022/08/30 04:18:14;;;;;;;4.28;2.92;;;13.70;45.50;;;;;;5020952;28;20224;-62
2022/08/30 04:20:42;;;;;;;3.35;3.05;;;13.80;40.50;;;;;;5046101;22;20231;-62
2022/08/30 04:23:09;;;;;;;3.60;2.67;;;13.70;31.90;;;;;;5052168;28;20223;-63
2022/08/30 04:25:37;;;;;;;4.75;3.42;;;13.70;28.00;;;;;;5069178;28;20219;-62
2022/08/30 04:28:05;;;;;;;3.85;3.03;;;13.50;25.40;;;;;;5065192;28;21424;-63
2022/08/30 04:30:32;;;;;;;4.30;3.00;;;13.50;29.90;;;;;;5069693;28;20223;-62
2022/08/30 04:33:00;;;;;;;2.97;2.67;;;13.40;30.70;;;;;;5057701;28;20224;-62
2022/08/30 04:35:27;;;;;;;3.55;2.90;;;13.60;37.70;;;;;;5028414;28;20219;-62
2022/08/30 04:37:54;;;;;;;5.03;2.53;;;13.30;27.30;;;;;;5071134;28;20208;-62
2022/08/30 04:40:21;;;;;;;4.30;2.88;;;13.30;36.00;;;;;;5032190;28;20234;-64
2022/08/30 04:42:52;;;;;;;4.57;2.90;;;13.20;36.50;;;;;;5042375;28;20858;-62
2022/08/30 04:45:20;;;;;;;3.83;2.70;;;13.20;34.70;;;;;;5053960;28;20227;-62
2022/08/30 04:47:47;;;;;;;2.67;2.38;;;13.20;40.80;;;;;;5067755;28;20203;-62
2022/08/30 04:50:18;;;;;;;4.93;3.15;;;13.30;46.20;;;;;;5065183;28;20227;-62
2022/08/30 04:52:46;;;;;;;3.25;2.78;;;12.90;45.30;;;;;;5074408;28;20220;-63
2022/08/30 04:55:14;;;;;;;4.40;2.47;;;13.10;41.80;;;;;;5053808;28;20224;-61
2022/08/30 04:57:42;;;;;;;3.75;2.70;;;13.30;54.40;;;;;;5059781;28;20227;-62
2022/08/30 05:00:12;;;;;;;4.03;2.88;;;13.60;58.60;;;;;;5067388;28;20898;-62
2022/08/30 05:02:40;;;;;;;3.55;2.60;;;13.40;54.40;;;;;;5059349;28;20219;-63
2022/08/30 05:07:54;;;;;;;2.70;2.30;;;;;;;;;;5080630;28;20234;-62
2022/08/30 05:10:21;;;;;;;10.77;2.60;;;13.60;51.80;;;;;;5066892;27;20224;-62
2022/08/30 05:12:48;;;;;;;2.78;2.47;;;15.00;54.20;;;;;;5071712;28;20352;-62
2022/08/30 05:15:15;;;;;;;2.45;2.25;;;13.70;45.10;;;;;;5069044;28;20724;-62
2022/08/30 05:17:42;;;;;;;4.35;2.50;;;;;;;;;;5077201;28;20196;-62
2022/08/30 05:20:11;;;;;;;4.40;2.30;;;13.90;46.40;;;;;;5067934;28;20235;-63
2022/08/30 05:22:38;;;;;;;3.72;2.47;;;13.90;44.20;;;;;;5079896;28;20211;-62
2022/08/30 05:25:08;;;;;;;2.72;2.28;;;13.90;41.90;;;;;;5077379;27;20734;-63
2022/08/30 05:27:35;;;;;;;3.55;2.05;;;14.10;40.10;;;;;;5048636;28;20204;-62
2022/08/30 05:30:02;;;;;;;2.85;2.10;;;14.00;32.50;;;;;;5083783;28;20196;-62
2022/08/30 05:32:29;;;;;;;4.85;2.28;;;14.00;33.30;;;;;;5065377;27;20200;-62
2022/08/30 05:34:56;;;;;;;2.47;2.22;;;14.30;29.50;;;;;;5083520;27;20203;-62
2022/08/30 05:37:23;;;;;;;4.18;2.47;;;14.30;28.40;;;;;;5066233;28;20228;-62
2022/08/30 05:39:49;;;;;;;5.05;2.40;;;14.10;26.50;;;;;;5079721;27;20220;-62
2022/08/30 05:42:18;;;;;;;6.07;2.50;;;14.50;19.30;;;;;;5046225;28;20227;-62
2022/08/30 05:44:44;;;;;;;3.55;2.60;;;14.30;1.00;;;;;;5075634;28;20620;-62
2022/08/30 05:47:11;;;;;;;3.15;1.92;;;14.60;1.00;;;;;;5067394;28;20224;-62
2022/08/30 05:49:38;;;;;;;5.32;2.67;;;14.50;1.00;;;;;;5080008;28;20196;-62
2022/08/30 05:52:05;;;;;;;3.33;2.45;;;14.60;1.00;;;;;;5083683;28;20224;-62
2022/08/30 05:54:31;;;;;;;11.73;3.10;;;14.60;1.00;;;;;;5076908;28;20208;-62
2022/08/30 05:56:59;;;;;;;6.00;2.28;;;14.60;1.00;;;;;;5054015;28;20208;-63
2022/08/30 05:59:27;;;;;;;3.35;2.25;;;14.60;1.00;;;;;;5079856;28;20223;-62
2022/08/30 06:01:57;;;;;;;12.77;2.60;;;14.00;1.00;;;;;;5076124;28;20272;-62
2022/08/30 06:04:24;;;;;;;4.90;2.40;;;14.30;1.00;;;;;;5056937;28;20235;-62
2022/08/30 06:06:51;;;;;;;11.18;3.17;;;14.50;1.00;;;;;;5080445;28;20222;-65
2022/08/30 06:09:18;;;;;;;7.32;1.98;;;14.50;1.00;;;;;;5074056;28;20228;-62
2022/08/30 06:11:46;;;;;;;3.08;2.40;;;14.40;1.00;;;;;;5082028;28;21410;-62
2022/08/30 06:14:13;;;;;;;4.20;2.10;;;14.30;1.00;;;;;;5060299;28;20581;-62
2022/08/30 06:16:44;;;;;;;2.60;2.22;;;15.10;1.00;;;;;;5082232;28;20203;-62
2022/08/30 06:19:12;;;;;;;3.88;2.45;;;14.30;1.00;;;;;;5059902;28;20232;-62
2022/08/30 06:21:40;;;;;;;7.05;2.55;;;14.30;1.00;;;;;;5082815;28;20230;-62
2022/08/30 06:24:08;;;;;;;2.55;2.05;;;14.30;1.00;;;;;;5084966;28;20198;-62
2022/08/30 06:26:37;;;;;;;3.08;2.13;;;14.30;1.50;;;;;;5076080;28;20810;-62
2022/08/30 06:29:04;;;;;;;2.85;2.45;;;14.30;1.00;;;;;;5058874;28;20211;-62
2022/08/30 06:31:31;;;;;;;3.88;2.47;;;14.30;5.50;;;;;;5083186;28;21395;-62
2022/08/30 06:34:00;;;;;;;4.63;2.30;;;14.30;7.60;;;;;;5072800;28;20669;-62
2022/08/30 06:36:26;;;;;;;5.43;2.63;;;14.50;15.40;;;;;;5082843;28;20688;-62
2022/08/30 06:38:56;;;;;;;2.58;2.00;;;14.30;15.40;;;;;;5080784;28;20207;-62
2022/08/30 06:41:25;;;;;;;2.60;2.40;;;14.40;15.80;;;;;;5072427;28;20227;-62
2022/08/30 06:43:53;;;;;;;4.75;2.08;;;14.30;22.60;;;;;;5055877;28;20205;-62
2022/08/30 06:46:21;;;;;;;6.07;2.53;;;14.30;22.50;;;;;;5065590;28;20214;-62
2022/08/30 06:48:48;;;;;;;11.88;2.30;;;14.90;22.20;;;;;;5082243;28;21309;-61
2022/08/30 06:51:20;;;;;;;4.25;2.13;;;14.60;20.40;;;;;;5069617;28;20227;-61
2022/08/30 06:53:48;;;;;;;4.75;2.00;;;14.60;18.50;;;;;;5081081;28;20223;-61
2022/08/30 06:56:17;;;;;;;8.30;2.00;;;14.60;11.50;;;;;;5077451;28;20278;-62
2022/08/30 06:58:45;;;;;;;4.38;2.08;;;13.50;17.10;;;;;;5065747;28;20211;-62
2022/08/30 07:01:13;;;;;;;2.35;1.95;;;14.80;13.60;;;;;;5065453;28;20516;-62
2022/08/30 07:03:40;;;;;;;3.28;2.22;;;14.90;16.00;;;;;;5079161;28;20250;-61
2022/08/30 07:06:07;;;;;;;6.13;2.45;;;14.80;16.60;;;;;;5068579;28;20228;-62
2022/08/30 07:08:36;;;;;;;5.57;2.42;;;15.00;13.70;;;;;;5077461;28;20211;-62
2022/08/30 07:11:04;;;;;;;2.35;1.67;;;15.00;8.80;;;;;;5077618;28;20227;-62
2022/08/30 07:13:31;;;;;;;2.65;2.20;;;15.00;1.00;;;;;;5082280;28;20265;-62
2022/08/30 07:15:58;;;;;;;2.80;1.67;;;15.00;1.00;;;;;;5055966;28;20680;-62
2022/08/30 07:21:11;;;;;;;4.50;2.00;;;15.10;1.00;;;;;;5078981;28;20292;-62
2022/08/30 07:23:39;;;;;;;4.82;1.75;;;15.10;1.00;;;;;;5067626;28;20224;-61
2022/08/30 07:26:08;;;;;;;3.25;1.77;;;15.20;1.00;;;;;;5076707;28;20203;-62
2022/08/30 07:28:37;;;;;;;1.98;1.75;;;15.30;1.00;;;;;;5074987;28;20206;-62
2022/08/30 07:31:05;;;;;;;3.45;2.00;;;15.30;1.00;;;;;;5053713;28;20223;-62
2022/08/30 07:33:32;;;;;;;2.70;2.13;;;15.20;1.00;;;;;;5064527;28;20207;-62
2022/08/30 07:35:59;;;;;;;7.53;2.13;;;15.30;1.90;;;;;;5081570;28;20206;-62
2022/08/30 07:38:26;;;;;;;5.90;2.38;;;15.40;1.00;;;;;;5052933;28;20310;-62
2022/08/30 07:40:56;;;;;;;5.70;1.90;;;15.40;1.00;;;;;;5078194;28;20215;-62
2022/08/30 07:43:23;;;;;;;4.30;2.03;;;15.50;1.00;;;;;;5063148;28;20603;-62
2022/08/30 07:45:50;;;;;;;2.30;1.77;;;15.30;1.00;;;;;;5079246;27;20673;-62
2022/08/30 07:48:17;;;;;;;2.78;1.67;;;15.50;1.00;;;;;;5052372;28;20234;-62
2022/08/30 07:50:45;;;;;;;2.22;1.52;;;15.50;1.00;;;;;;5074382;28;20336;-62
2022/08/30 07:53:12;;;;;;;2.42;1.50;;;15.70;1.00;;;;;;5059269;28;20245;-62
2022/08/30 07:55:39;;;;;;;6.15;1.98;;;15.70;1.00;;;;;;5079955;28;20215;-63
2022/08/30 07:58:07;;;;;;;3.63;1.73;;;15.60;1.00;;;;;;5076071;28;20225;-62
2022/08/30 08:00:34;;;;;;;2.03;1.33;;;15.80;1.00;;;;;;5071703;28;20235;-62
2022/08/30 08:03:06;;;;;;;3.70;1.80;;;15.80;1.00;;;;;;5053626;28;20224;-62
2022/08/30 08:05:37;;;;;;;2.45;1.80;;;15.80;1.00;;;;;;5087943;28;20242;-62
2022/08/30 08:08:04;;;;;;;1.30;1.20;;;15.90;1.00;;;;;;5073248;28;21173;-62
2022/08/30 08:10:31;;;;;;;5.35;1.48;;;15.90;1.00;;;;;;5081953;28;20204;-62
2022/08/30 08:12:59;;;;;;;4.00;1.55;;;16.00;1.00;;;;;;5080805;28;20224;-62
2022/08/30 08:15:27;;;;;;;2.03;1.40;;;16.10;1.00;;;;;;5073261;28;20231;-63
2022/08/30 08:17:54;;;;;;;3.67;1.20;;;16.20;1.00;;;;;;5057965;28;20216;-63
2022/08/30 08:20:21;;;;;;;3.35;1.25;;;16.50;1.00;;;;;;5078472;28;20879;-62
2022/08/30 08:22:49;;;;;;;1.30;1.10;;;16.40;1.00;;;;;;5080544;28;20192;-62
2022/08/30 08:25:16;;;;;;;1.52;1.30;;;17.60;1.00;;;;;;5075782;28;20631;-62
2022/08/30 08:27:43;;;;;;;1.33;1.20;;;16.40;1.00;;;;;;5084594;28;20191;-62
2022/08/30 08:30:10;;;;;;;5.32;1.17;;;16.50;1.00;;;;;;5075643;28;20192;-62
2022/08/30 08:32:39;;;;;;;4.03;1.38;;;16.50;1.00;;;;;;5085032;28;20231;-62
2022/08/30 08:35:07;;;;;;;6.85;1.70;;;16.60;1.00;;;;;;5072421;28;20678;-62
2022/08/30 08:37:34;;;;;;;1.45;1.00;;;;;;;;;;5088151;28;20196;-63
2022/08/30 08:40:01;;;;;;;1.30;1.20;;;16.70;1.00;;;;;;5071557;28;20203;-62
2022/08/30 08:42:36;;;;;;;1.38;1.08;;;16.90;99.90;;;;;;5090405;28;20193;-62
2022/08/30 08:45:07;;;;;;;1.05;0.95;;;17.00;99.90;;;;;;5071308;28;20357;-62
2022/08/30 08:47:39;;;;;;;1.15;0.90;;;16.80;99.90;;;;;;5086231;28;20227;-61
2022/08/30 08:50:12;;;;;;;2.50;1.45;;;17.10;99.90;;;;;;5060937;28;20201;-62
2022/08/30 08:55:34;;;;;;;5.97;1.30;;;17.30;99.90;;;;;;5075251;27;20219;-62
2022/08/30 08:58:02;;;;;;;3.05;1.35;;;17.30;99.90;;;;;;5084507;28;20342;-62
2022/08/30 09:00:29;;;;;;;1.33;1.23;;;17.30;99.90;;;;;;5077912;28;20207;-62
2022/08/30 09:03:01;;;;;;;1.95;1.30;;;17.60;99.90;;;;;;5084807;28;20202;-62
2022/08/30 09:05:36;;;;;;;2.90;1.40;;;17.60;99.90;;;;;;5065745;28;20200;-63
2022/08/30 09:08:06;;;;;;;1.40;1.30;;;17.60;56.40;;;;;;5087087;28;20221;-62
2022/08/30 09:10:34;;;;;;;1.75;1.20;;;17.60;45.80;;;;;;5078386;27;20206;-62
2022/08/30 09:13:01;;;;;;;1.35;1.23;;;17.60;28.20;;;;;;5082698;28;20319;-63
2022/08/30 09:15:31;;;;;;;1.80;1.42;;;17.70;97.50;;;;;;5085357;28;20214;-62
2022/08/30 09:18:02;;;;;;;1.70;1.35;;;17.80;99.90;;;;;;5077086;28;20210;-63
2022/08/30 09:20:32;;;;;;;3.03;1.48;;;17.80;99.90;;;;;;5062516;28;20231;-62
2022/08/30 09:23:20;;;;;;;3.03;1.50;;;18.00;99.90;;;;;;5081485;28;20199;-62
2022/08/30 09:25:51;;;;;;;1.92;1.10;;;18.10;99.90;;;;;;5070599;28;20216;-62
2022/08/30 09:28:22;;;;;;;2.53;1.30;;;18.10;99.90;;;;;;5086923;28;20751;-62
2022/08/30 09:31:00;;;;;;;2.58;1.20;;;18.30;1.00;;;;;;5067183;28;20227;-62
2022/08/30 09:33:28;;;;;;;1.23;1.13;;;18.30;1.00;;;;;;5065631;28;20246;-62
2022/08/30 09:35:56;;;;;;;2.45;1.35;;;18.30;1.00;;;;;;5051771;28;20301;-62
2022/08/30 09:38:26;;;;;;;3.97;1.30;;;18.50;1.00;;;;;;5083789;27;20218;-62
2022/08/30 09:40:54;;;;;;;2.53;1.15;;;18.70;99.90;;;;;;5063251;28;20236;-62
2022/08/30 09:43:23;;;;;;;1.27;1.17;;;18.60;1.00;;;;;;5079884;28;20300;-62
2022/08/30 09:46:07;;;;;;;3.45;1.52;;;18.70;99.90;;;;;;5081513;27;20243;-63
2022/08/30 09:48:39;;;;;;;1.45;1.00;;;18.70;49.80;;;;;;5074073;27;20239;-62
2022/08/30 09:51:41;;;;;;;4.78;1.20;;;18.70;1.00;;;;;;5067967;28;20219;-62
2022/08/30 09:54:18;;;;;;;2.00;1.02;;;18.70;1.00;;;;;;5072025;27;20598;-62
2022/08/30 09:56:59;;;;;;;2.55;1.00;;;18.60;1.00;;;;;;5073117;27;20797;-62
2022/08/30 09:59:39;;;;;;;1.20;1.10;;;18.70;1.00;;;;;;5080021;27;20314;-62
2022/08/30 10:02:21;;;;;;;1.20;1.10;;;18.70;99.90;;;;;;5075014;27;20227;-62
2022/08/30 10:04:59;;;;;;;1.27;1.10;;;18.70;99.90;;;;;;5081173;27;20195;-62
2022/08/30 10:07:32;;;;;;;2.40;1.63;;;18.70;99.90;;;;;;5054388;28;21211;-62
2022/08/30 10:10:06;;;;;;;5.85;1.25;;;18.70;99.90;;;;;;5081444;27;20199;-62
2022/08/30 10:12:43;;;;;;;3.05;1.35;;;18.60;1.00;;;;;;5072366;28;20254;-62
2022/08/30 10:15:18;;;;;;;1.40;1.30;;;18.70;1.00;;;;;;5065058;28;20200;-62
2022/08/30 10:17:55;;;;;;;1.45;1.13;;;18.70;24.20;;;;;;5068776;28;20231;-62
2022/08/30 10:20:29;;;;;;;1.00;0.98;;;18.70;99.90;;;;;;5069397;27;20223;-62
2022/08/30 10:23:01;;;;;;;1.27;1.17;;;18.70;99.90;;;;;;5062772;28;20860;-62
2022/08/30 10:25:32;;;;;;;1.20;1.10;;;18.80;99.90;;;;;;5081955;28;20206;-62
2022/08/30 10:28:04;;;;;;;2.20;1.10;;;18.90;99.90;;;;;;5076032;28;20203;-62
2022/08/30 10:30:36;;;;;;;1.92;0.90;;;19.00;1.00;;;;;;5080352;27;20634;-62
2022/08/30 10:33:08;;;;;;;1.95;1.08;;;19.20;99.90;;;;;;5063410;28;20223;-62
2022/08/30 10:35:40;;;;;;;2.20;1.20;;;19.30;1.00;;;;;;5079167;28;20291;-62
2022/08/30 10:38:14;;;;;;;1.60;0.98;;;19.40;99.90;;;;;;5061952;28;20684;-63
2022/08/30 10:43:41;;;;;;;3.95;1.30;;;19.30;99.90;;;;;;5075992;28;20210;-62
2022/08/30 10:46:14;;;;;;;0.90;0.90;;;19.30;25.90;;;;;;5084954;28;20218;-62
2022/08/30 10:48:43;;;;;;;1.27;1.00;;;19.30;13.90;;;;;;5068878;28;20197;-62
2022/08/30 10:51:20;;;;;;;1.55;1.10;;;19.40;99.90;;;;;;5080652;28;20199;-62
2022/08/30 10:53:50;;;;;;;1.55;1.27;;;19.50;1.00;;;;;;5060422;28;20231;-62
2022/08/30 10:56:21;;;;;;;1.40;0.95;;;19.60;1.00;;;;;;5082825;28;20207;-62
2022/08/30 10:58:48;;;;;;;0.77;0.73;;;19.60;1.00;;;;;;5069150;28;20206;-62
2022/08/30 11:01:40;;;;;;;1.17;1.08;;;19.50;7.40;;;;;;5081825;28;21166;-62
2022/08/30 11:04:34;;;;;;;1.65;0.95;;;19.50;1.00;;;;;;5069217;28;21053;-62
2022/08/30 11:07:15;;;;;;;3.70;1.77;;;19.40;1.00;;;;;;5079839;28;21086;-62
2022/08/30 11:10:04;;;;;;;6.78;1.13;;;19.40;1.00;;;;;;5055085;28;20804;-62
2022/08/30 11:12:35;;;;;;;1.05;1.00;;;19.40;1.00;;;;;;5080111;28;20227;-62
2022/08/30 11:15:14;;;;;;;1.38;1.00;;;18.70;1.00;;;;;;5056150;28;20283;-62
2022/08/30 11:17:46;;;;;;;1.25;1.10;;;19.40;1.00;;;;;;5081441;28;20191;-62
2022/08/30 11:20:23;;;;;;;1.50;0.93;;;19.60;1.00;;;;;;5067138;28;20223;-62
2022/08/30 11:25:52;;;;;;;1.38;0.95;;;19.90;6.90;;;;;;5036710;27;20621;-62
2022/08/30 11:28:52;;;;;;;0.95;0.90;;;19.90;23.50;;;;;;5060325;28;20223;-62
2022/08/30 11:31:33;;;;;;;2.17;1.00;;;19.90;8.00;;;;;;5059346;28;20200;-63
2022/08/30 11:34:00;;;;;;;2.58;1.33;;;19.90;1.00;;;;;;5055559;28;20397;-63
2022/08/30 11:37:04;;;;;;;1.00;0.90;;;19.50;25.00;;;;;;5051653;28;20199;-61
2022/08/30 11:39:55;;;;;;;0.85;0.85;;;19.40;99.90;;;;;;5027709;28;20196;-62
2022/08/30 11:42:32;;;;;;;0.90;0.90;;;19.70;99.90;;;;;;5062355;28;20208;-62
2022/08/30 11:45:45;;;;;;;1.00;0.90;;;19.80;99.90;;;;;;5050732;28;20224;-63
2022/08/30 11:48:44;;;;;;;2.15;1.20;;;19.90;1.00;;;;;;5040132;28;20201;-63
2022/08/30 11:51:46;;;;;;;3.55;1.20;;;20.00;1.00;;;;;;5047074;28;20204;-63
2022/08/30 11:54:25;;;;;;;1.13;0.98;;;20.40;1.00;;;;;;5057673;28;20211;-62
2022/08/30 11:56:59;;;;;;;1.52;1.08;;;20.00;1.00;;;;;;5034184;28;20204;-63
2022/08/30 11:59:36;;;;;;;2.13;0.80;;;19.60;99.90;;;;;;5040914;28;20219;-63
2022/08/30 12:02:03;;;;;;;2.08;1.02;;;19.90;99.90;;;;;;5024765;28;20204;-63
2022/08/30 12:04:45;;;;;;;1.63;1.08;;;19.80;1.00;;;;;;5036244;28;20239;-63
2022/08/30 12:07:33;;;;;;;3.17;0.90;;;19.80;1.00;;;;;;5042639;28;20228;-62
2022/08/30 12:10:02;;;;;;;3.50;1.00;;;19.30;1.00;;;;;;5057951;28;20217;-62
2022/08/30 12:12:53;;;;;;;2.88;1.00;;;20.00;1.00;;;;;;5031131;28;20235;-62
2022/08/30 12:15:44;;;;;;;1.13;1.02;;;20.10;1.00;;;;;;5050516;28;20223;-63
2022/08/30 12:18:27;;;;;;;1.05;0.98;;;20.00;1.00;;;;;;5054887;28;20220;-62
2022/08/30 12:20:57;;;;;;;1.88;1.27;;;20.20;1.00;;;;;;5048572;28;20216;-62
2022/08/30 12:23:39;;;;;;;1.20;0.80;;;20.20;1.00;;;;;;5041157;28;20205;-63
2022/08/30 12:26:16;;;;;;;0.77;0.77;;;20.20;99.90;;;;;;5052824;28;20228;-62
2022/08/30 12:28:45;;;;;;;2.70;0.90;;;20.10;99.90;;;;;;5053459;28;20262;-62
2022/08/30 12:31:15;;;;;;;0.80;0.80;;;21.10;99.90;;;;;;5054269;28;20291;-63
2022/08/30 12:33:44;;;;;;;0.98;0.90;;;20.30;99.90;;;;;;5056048;28;20212;-63
2022/08/30 12:36:17;;;;;;;0.82;0.82;;;20.30;99.90;;;;;;5037345;28;20205;-62
2022/08/30 12:38:44;;;;;;;1.45;1.05;;;20.70;1.00;;;;;;4997126;28;21048;-62
2022/08/30 12:41:21;;;;;;;0.90;0.85;;;20.60;1.00;;;;;;5037753;28;20275;-62
2022/08/30 12:43:50;;;;;;;0.75;0.75;;;20.20;1.00;;;;;;5012521;28;20335;-63
2022/08/30 12:46:19;;;;;;;2.30;0.77;;;20.70;99.90;;;;;;5023589;28;20201;-61
2022/08/30 12:48:47;;;;;;;0.85;0.85;;;20.70;99.90;;;;;;5024019;28;20221;-61
2022/08/30 12:51:36;;;;;;;1.10;1.00;;;20.60;99.90;;;;;;5023625;28;20204;-63
2022/08/30 12:54:07;;;;;;;1.38;0.90;;;20.60;99.90;;;;;;5014577;28;20298;-62
2022/08/30 12:57:08;;;;;;;1.25;1.00;;;20.80;99.90;;;;;;5025369;28;20689;-62
2022/08/30 12:59:40;;;;;;;1.80;0.90;;;20.90;99.90;;;;;;5017191;28;20240;-62
2022/08/30 13:02:11;;;;;;;1.02;0.93;;;20.90;99.90;;;;;;5019744;28;20201;-62
2022/08/30 13:04:39;;;;;;;1.15;1.00;;;20.90;99.90;;;;;;5029731;28;20221;-63
2022/08/30 13:07:06;;;;;;;1.63;0.93;;;20.80;99.90;;;;;;5014730;28;20645;-61
2022/08/30 13:09:35;;;;;;;1.23;0.80;;;20.90;99.90;;;;;;5020923;28;20236;-64
2022/08/30 13:12:06;;;;;;;2.40;0.93;;;21.00;99.90;;;;;;5027003;28;20569;-63
2022/08/30 13:14:37;;;;;;;1.10;0.88;;;21.00;99.90;;;;;;4999497;28;20224;-62
2022/08/30 13:17:20;;;;;;;1.70;0.90;;;21.10;15.00;;;;;;5024651;28;20201;-62
2022/08/30 13:19:58;;;;;;;2.63;1.00;;;21.10;24.50;;;;;;5023163;28;20913;-62
2022/08/30 13:22:26;;;;;;;0.80;0.80;;;21.10;3.90;;;;;;5026771;28;20216;-63
2022/08/30 13:24:53;;;;;;;1.00;0.80;;;21.10;1.00;;;;;;5018302;28;20244;-63